createdAt,value
2018-11-01T00:01:49.000Z,24.59
2018-11-01T00:11:49.000Z,24.55
2018-11-01T00:21:49.000Z,24.51
2018-11-01T00:41:49.000Z,24.4
2018-11-01T00:51:49.000Z,24.33
2018-11-01T01:01:49.000Z,24.29
2018-11-01T01:11:49.000Z,24.24
2018-11-01T01:21:49.000Z,24.16
2018-11-01T01:31:49.000Z,24.13
2018-11-01T01:41:49.000Z,24.09
2018-11-01T01:51:49.000Z,24.01
2018-11-01T02:01:49.000Z,23.95
2018-11-01T02:11:49.000Z,23.89
2018-11-01T02:21:49.000Z,23.87
2018-11-01T02:31:49.000Z,23.84
2018-11-01T02:41:49.000Z,23.76
2018-11-01T02:51:49.000Z,23.77
2018-11-01T03:01:49.000Z,23.7
2018-11-01T03:11:49.000Z,23.67
2018-11-01T03:21:49.000Z,23.65
2018-11-01T03:31:49.000Z,23.59
2018-11-01T03:41:49.000Z,23.56
2018-11-01T03:51:49.000Z,23.54
2018-11-01T04:01:49.000Z,23.51
2018-11-01T04:11:49.000Z,23.47
2018-11-01T04:21:49.000Z,23.45
2018-11-01T04:31:49.000Z,23.36
2018-11-01T04:51:50.000Z,23.3
2018-11-01T05:01:50.000Z,23.31
2018-11-01T05:11:50.000Z,23.33
2018-11-01T05:21:50.000Z,23.36
2018-11-01T05:31:50.000Z,23.44
2018-11-01T05:41:50.000Z,23.44
2018-11-01T05:51:50.000Z,23.45
2018-11-01T06:01:50.000Z,23.45
2018-11-01T06:11:50.000Z,23.53
2018-11-01T06:21:52.000Z,23.56
2018-11-01T06:31:50.000Z,23.45
2018-11-01T06:41:50.000Z,23.53
2018-11-01T06:51:50.000Z,23.53
2018-11-01T07:01:50.000Z,23.5
2018-11-01T07:11:50.000Z,23.5
2018-11-01T07:21:50.000Z,23.55
2018-11-01T07:31:50.000Z,23.53
2018-11-01T07:41:50.000Z,23.54
2018-11-01T07:51:50.000Z,23.63
2018-11-01T08:01:50.000Z,23.58
2018-11-01T08:11:50.000Z,23.85
2018-11-01T08:21:50.000Z,23.61
2018-11-01T08:31:50.000Z,23.6
2018-11-01T08:41:50.000Z,23.62
2018-11-01T08:51:50.000Z,23.67
2018-11-01T09:01:50.000Z,23.74
2018-11-01T09:11:50.000Z,23.75
2018-11-01T09:21:50.000Z,23.82
2018-11-01T09:31:50.000Z,23.84
2018-11-01T09:41:50.000Z,23.87
2018-11-01T09:51:50.000Z,23.87
2018-11-01T10:01:50.000Z,23.95
2018-11-01T10:11:50.000Z,23.97
2018-11-01T10:21:50.000Z,24.04
2018-11-01T10:31:50.000Z,24.05
2018-11-01T10:41:50.000Z,24.07
2018-11-01T10:51:50.000Z,24.11
2018-11-01T11:01:50.000Z,24.14
2018-11-01T11:11:50.000Z,24.21
2018-11-01T11:21:50.000Z,24.25
2018-11-01T11:31:50.000Z,24.27
2018-11-01T11:41:50.000Z,24.27
2018-11-01T11:51:51.000Z,24.31
2018-11-01T12:01:50.000Z,24.29
2018-11-01T12:11:50.000Z,24.3
2018-11-01T12:21:50.000Z,24.29
2018-11-01T12:31:50.000Z,24.36
2018-11-01T12:41:51.000Z,24.35
2018-11-01T12:51:51.000Z,24.38
2018-11-01T13:01:51.000Z,24.35
2018-11-01T13:11:51.000Z,24.38
2018-11-01T13:21:51.000Z,24.38
2018-11-01T13:31:51.000Z,24.41
2018-11-01T13:41:51.000Z,24.44
2018-11-01T13:51:51.000Z,24.46
2018-11-01T14:01:51.000Z,24.48
2018-11-01T14:11:51.000Z,24.49
2018-11-01T14:21:51.000Z,24.43
2018-11-01T14:31:51.000Z,24.43
2018-11-01T14:41:51.000Z,24.5
2018-11-01T14:51:51.000Z,24.45
2018-11-01T15:01:55.000Z,24.45
2018-11-01T15:11:51.000Z,24.47
2018-11-01T15:21:51.000Z,24.63
2018-11-01T15:31:55.000Z,24.61
2018-11-01T15:41:51.000Z,23.5
2018-11-01T15:51:51.000Z,23.03
2018-11-01T16:01:51.000Z,22.54
2018-11-01T16:11:51.000Z,23.68
2018-11-01T16:21:51.000Z,24.18
2018-11-01T16:31:51.000Z,24.32
2018-11-01T16:41:54.000Z,24.43
2018-11-01T16:51:51.000Z,24.41
2018-11-01T17:01:51.000Z,24.51
2018-11-01T17:11:53.000Z,24.59
2018-11-01T17:21:51.000Z,24.63
2018-11-01T17:31:51.000Z,24.68
2018-11-01T17:41:51.000Z,24.69
2018-11-01T17:51:51.000Z,24.68
2018-11-01T18:01:51.000Z,24.74
2018-11-01T18:11:51.000Z,24.74
2018-11-01T18:21:51.000Z,24.77
2018-11-01T18:31:51.000Z,24.68
2018-11-01T18:41:51.000Z,24.74
2018-11-01T18:51:51.000Z,24.75
2018-11-01T19:01:51.000Z,24.7
2018-11-01T19:11:51.000Z,24.71
2018-11-01T19:21:51.000Z,24.78
2018-11-01T19:31:51.000Z,24.91
2018-11-01T19:41:51.000Z,24.96
2018-11-01T19:51:51.000Z,24.63
2018-11-01T20:01:51.000Z,24.62
2018-11-01T20:11:51.000Z,24.61
2018-11-01T20:21:51.000Z,24.85
2018-11-01T20:31:51.000Z,24.83
2018-11-01T20:41:51.000Z,24.73
2018-11-01T20:51:51.000Z,24.79
2018-11-01T21:01:52.000Z,24.83
2018-11-01T21:11:52.000Z,24.83
2018-11-01T21:21:52.000Z,24.86
2018-11-01T21:31:52.000Z,24.97
2018-11-01T21:41:54.000Z,24.92
2018-11-01T21:51:52.000Z,24.92
2018-11-01T22:01:52.000Z,24.88
2018-11-01T22:11:52.000Z,24.85
2018-11-01T22:21:52.000Z,24.97
2018-11-01T22:31:52.000Z,24.76
2018-11-01T22:41:52.000Z,25.03
2018-11-01T22:51:52.000Z,24.97
2018-11-01T23:01:52.000Z,24.87
2018-11-01T23:11:52.000Z,24.82
2018-11-01T23:21:52.000Z,24.8
2018-11-01T23:31:52.000Z,24.71
2018-11-01T23:41:52.000Z,24.55
2018-11-01T23:51:52.000Z,24.53
